Observation data for Amherst on 01/20/2019      Previous  Date  Next       Current Mesonet Observations  Soil Data  Daily Summary Page  Observations in Plain Language
KAMH 200600Z 18009KT M00/M04 A3027 RMK A01 T10031043  RH  075%=      5-min Rain = 0
KAMH 200605Z 19008KT M00/M04 A3027 RMK A01 T10031042  RH  075%=      5-min Rain = 0
KAMH 200610Z 19009KT M00/M04 A3027 RMK A01 T10021042  RH  075%=      5-min Rain = 0
KAMH 200615Z 19008KT M00/M04 A3026 RMK A01 T10021042  RH  075%=      5-min Rain = 0
KAMH 200620Z 19009KT M00/M04 A3027 RMK A01 T10031042  RH  075%=      5-min Rain = 0
KAMH 200625Z 19009KT 00/04 A3027 RMK A01 T00-00-41  RH  075%=      5-min Rain = 0
KAMH 200630Z 19008KT 00/M04 A3026 RMK A01 T00011041  RH  074%=      5-min Rain = 0
KAMH 200635Z 19007KT M00/M04 A3027 RMK A01 T10021042  RH  074%=      5-min Rain = 0
KAMH 200640Z 19007KT M00/M04 A3027 RMK A01 T10031042  RH  075%=      5-min Rain = 0
KAMH 200645Z 20008KT M00/M04 A3026 RMK A01 T10021041  RH  075%=      5-min Rain = 0
KAMH 200650Z 20009KT 00/M04 A3026 RMK A01 T00011041  RH  074%=      5-min Rain = 0
KAMH 200655Z 20009KT 00/04 A3026 RMK A01 T00-00-43  RH  074%=      5-min Rain = 0
KAMH 200700Z 20008KT M00/M04 A3026 RMK A01 T10011043  RH  073%=      5-min Rain = 0
KAMH 200705Z 19008KT M00/M04 A3026 RMK A01 T10021044  RH  074%=      5-min Rain = 0
KAMH 200710Z 20008KT M00/M04 A3026 RMK A01 T10021044  RH  074%=      5-min Rain = 0
KAMH 200715Z 20008KT M00/M05 A3026 RMK A01 T10021045  RH  073%=      5-min Rain = 0
KAMH 200720Z 20008KT M00/M05 A3026 RMK A01 T10031045  RH  074%=      5-min Rain = 0
KAMH 200725Z 20008KT M00/M05 A3026 RMK A01 T10031045  RH  073%=      5-min Rain = 0
KAMH 200730Z 20008KT M00/M05 A3026 RMK A01 T10041046  RH  074%=      5-min Rain = 0
KAMH 200735Z 20008KT M01/M05 A3026 RMK A01 T10061046  RH  074%=      5-min Rain = 0
KAMH 200740Z 20008KT M01/M05 A3026 RMK A01 T10051047  RH  074%=      5-min Rain = 0
KAMH 200745Z 19007KT M01/M05 A3026 RMK A01 T10071048  RH  074%=      5-min Rain = 0
KAMH 200750Z 19006KT M01/M05 A3025 RMK A01 T10091048  RH  075%=      5-min Rain = 0
KAMH 200755Z 19007KT M01/M05 A3026 RMK A01 T10131050  RH  076%=      5-min Rain = 0
KAMH 200800Z 18005KT M02/M05 A3026 RMK A01 T10191053  RH  078%=      5-min Rain = 0
KAMH 200805Z 18006KT M03/M05 A3025 RMK A01 T10251054  RH  080%=      5-min Rain = 0
KAMH 200810Z 18007KT M03/M05 A3025 RMK A01 T10251052  RH  081%=      5-min Rain = 0
KAMH 200815Z 18006KT M03/M05 A3025 RMK A01 T10261054  RH  082%=      5-min Rain = 0
KAMH 200820Z 17005KT M03/M06 A3025 RMK A01 T10301056  RH  083%=      5-min Rain = 0
KAMH 200825Z 16004KT M03/M06 A3026 RMK A01 T10341059  RH  083%=      5-min Rain = 0
KAMH 200830Z 16004KT M04/M06 A3026 RMK A01 T10371060  RH  084%=      5-min Rain = 0
KAMH 200835Z 16003KT M04/M06 A3026 RMK A01 T10361058  RH  085%=      5-min Rain = 0
KAMH 200840Z 15004KT M04/M06 A3026 RMK A01 T10351057  RH  085%=      5-min Rain = 0
KAMH 200845Z 16004KT M03/M06 A3026 RMK A01 T10341057  RH  084%=      5-min Rain = 0
KAMH 200850Z 15005KT M03/M06 A3026 RMK A01 T10341057  RH  084%=      5-min Rain = 0
KAMH 200855Z 16006KT M04/M06 A3026 RMK A01 T10351057  RH  084%=      5-min Rain = 0
KAMH 200900Z 16006KT M03/M06 A3026 RMK A01 T10341057  RH  085%=      5-min Rain = 0
KAMH 200905Z 16006KT M04/M06 A3026 RMK A01 T10351057  RH  085%=      5-min Rain = 0
KAMH 200910Z 16006KT M04/M06 A3026 RMK A01 T10351057  RH  085%=      5-min Rain = 0
KAMH 200915Z 16006KT M04/M06 A3025 RMK A01 T10361057  RH  085%=      5-min Rain = 0
KAMH 200920Z 16006KT M04/M06 A3025 RMK A01 T10361057  RH  086%=      5-min Rain = 0
KAMH 200925Z 16006KT M04/M06 A3025 RMK A01 T10361056  RH  086%=      5-min Rain = 0
KAMH 200930Z 16005KT M04/M06 A3025 RMK A01 T10351056  RH  085%=      5-min Rain = 0
KAMH 200935Z 16006KT M03/M06 A3025 RMK A01 T10341056  RH  085%=      5-min Rain = 0
KAMH 200940Z 16006KT M03/M05 A3025 RMK A01 T10331054  RH  085%=      5-min Rain = 0
KAMH 200945Z 17007KT M03/M05 A3025 RMK A01 T10301053  RH  085%=      5-min Rain = 0
KAMH 200950Z 17006KT M03/M05 A3024 RMK A01 T10291053  RH  084%=      5-min Rain = 0
KAMH 200955Z 17005KT M03/M05 A3024 RMK A01 T10281052  RH  084%=      5-min Rain = 0
KAMH 201000Z 16006KT M03/M05 A3024 RMK A01 T10281053  RH  083%=      5-min Rain = 0
KAMH 201005Z 17006KT M03/M05 A3024 RMK A01 T10281053  RH  083%=      5-min Rain = 0
KAMH 201010Z 17006KT M03/M05 A3024 RMK A01 T10281052  RH  083%=      5-min Rain = 0
KAMH 201015Z 17005KT M03/M05 A3024 RMK A01 T10261051  RH  084%=      5-min Rain = 0
KAMH 201020Z 17006KT M03/M05 A3024 RMK A01 T10251050  RH  083%=      5-min Rain = 0
KAMH 201025Z 17006KT M03/M05 A3024 RMK A01 T10251050  RH  083%=      5-min Rain = 0
KAMH 201030Z 17007KT M03/M05 A3024 RMK A01 T10271051  RH  083%=      5-min Rain = 0
KAMH 201035Z 18007KT M03/M05 A3024 RMK A01 T10271051  RH  084%=      5-min Rain = 0
KAMH 201040Z 18007KT M03/M05 A3024 RMK A01 T10281051  RH  084%=      5-min Rain = 0
KAMH 201045Z 17007KT M03/M05 A3024 RMK A01 T10271052  RH  084%=      5-min Rain = 0
KAMH 201050Z 17007KT M03/M05 A3024 RMK A01 T10281052  RH  084%=      5-min Rain = 0
KAMH 201055Z 18006KT M03/M05 A3024 RMK A01 T10281052  RH  084%=      5-min Rain = 0
KAMH 201100Z 18006KT M03/M05 A3024 RMK A01 T10291052  RH  084%=      5-min Rain = 0
KAMH 201105Z 18007KT M03/M05 A3024 RMK A01 T10261050  RH  084%=      5-min Rain = 0
KAMH 201110Z 17006KT M03/M05 A3024 RMK A01 T10271052  RH  083%=      5-min Rain = 0
KAMH 201115Z 18007KT M03/M05 A3023 RMK A01 T10281051  RH  084%=      5-min Rain = 0
KAMH 201120Z 19008KT M03/M05 A3023 RMK A01 T10261050  RH  084%=      5-min Rain = 0
KAMH 201125Z 18007KT M03/M05 A3023 RMK A01 T10251051  RH  083%=      5-min Rain = 0
KAMH 201130Z 19008KT M03/M05 A3022 RMK A01 T10271052  RH  083%=      5-min Rain = 0
KAMH 201135Z 19007KT M03/M05 A3022 RMK A01 T10281052  RH  084%=      5-min Rain = 0
KAMH 201140Z 18007KT M03/M05 A3022 RMK A01 T10301054  RH  084%=      5-min Rain = 0
KAMH 201145Z 18007KT M03/M06 A3022 RMK A01 T10321055  RH  084%=      5-min Rain = 0
KAMH 201150Z 19007KT M03/M05 A3022 RMK A01 T10311054  RH  085%=      5-min Rain = 0
KAMH 201155Z 18007KT M03/M05 A3022 RMK A01 T10311054  RH  085%=      5-min Rain = 0
KAMH 201200Z 18007KT M03/M06 A3022 RMK A01 T10331055  RH  085%=      5-min Rain = 0
KAMH 201205Z 18007KT M03/M05 A3022 RMK A01 T10321054  RH  085%=      5-min Rain = 0
KAMH 201210Z 18007KT M03/M06 A3022 RMK A01 T10341055  RH  086%=      5-min Rain = 0
KAMH 201215Z 18007KT M03/M05 A3022 RMK A01 T10331053  RH  086%=      5-min Rain = 0
KAMH 201220Z 18007KT M03/M05 A3022 RMK A01 T10321053  RH  085%=      5-min Rain = 0
KAMH 201225Z 18007KT M04/M06 A3022 RMK A01 T10351055  RH  086%=      5-min Rain = 0
KAMH 201230Z 18007KT M03/M05 A3022 RMK A01 T10331053  RH  086%=      5-min Rain = 0
KAMH 201235Z 18005KT M04/M06 A3022 RMK A01 T10351055  RH  086%=      5-min Rain = 0
KAMH 201240Z 17004KT M04/M06 A3022 RMK A01 T10381058  RH  086%=      5-min Rain = 0
KAMH 201245Z 17005KT M04/M06 A3022 RMK A01 T10401059  RH  087%=      5-min Rain = 0
KAMH 201250Z 17004KT M04/M06 A3022 RMK A01 T10441064  RH  087%=      5-min Rain = 0
KAMH 201255Z 18005KT M05/M07 A3022 RMK A01 T10471065  RH  088%=      5-min Rain = 0
KAMH 201300Z 19006KT M04/M06 A3022 RMK A01 T10441060  RH  089%=      5-min Rain = 0
KAMH 201305Z 18006KT M04/M06 A3022 RMK A01 T10391056  RH  088%=      5-min Rain = 0
KAMH 201310Z 18005KT M04/M06 A3022 RMK A01 T10441063  RH  086%=      5-min Rain = 0
KAMH 201315Z 19006KT M05/M06 A3022 RMK A01 T10451062  RH  088%=      5-min Rain = 0
KAMH 201320Z 18006KT M04/M06 A3023 RMK A01 T10391056  RH  088%=      5-min Rain = 0
KAMH 201325Z 18006KT M04/M06 A3023 RMK A01 T10391058  RH  087%=      5-min Rain = 0
KAMH 201330Z 18006KT M04/M06 A3023 RMK A01 T10421060  RH  087%=      5-min Rain = 0
KAMH 201335Z 18006KT M04/M06 A3023 RMK A01 T10411059  RH  088%=      5-min Rain = 0
KAMH 201340Z 18007KT M04/M06 A3023 RMK A01 T10401058  RH  088%=      5-min Rain = 0
KAMH 201345Z 18007KT M04/M06 A3023 RMK A01 T10411059  RH  087%=      5-min Rain = 0
KAMH 201350Z 18007KT M04/M06 A3023 RMK A01 T10431061  RH  087%=      5-min Rain = 0
KAMH 201355Z 19007KT M04/M06 A3023 RMK A01 T10411059  RH  088%=      5-min Rain = 0
KAMH 201400Z 19006KT M04/M06 A3023 RMK A01 T10411059  RH  087%=      5-min Rain = 0
KAMH 201405Z 18006KT M04/M06 A3023 RMK A01 T10421060  RH  087%=      5-min Rain = 0
KAMH 201410Z 18005KT M04/M06 A3023 RMK A01 T10431061  RH  088%=      5-min Rain = 0
KAMH 201415Z 18005KT M04/M06 A3023 RMK A01 T10421059  RH  088%=      5-min Rain = 0
KAMH 201420Z 17005KT M04/M06 A3022 RMK A01 T10401057  RH  088%=      5-min Rain = 0
KAMH 201425Z 18005KT M04/M06 A3022 RMK A01 T10391056  RH  088%=      5-min Rain = 0
KAMH 201430Z 19005KT M04/M05 A3022 RMK A01 T10351053  RH  088%=      5-min Rain = 0
KAMH 201435Z 19006KT M03/M05 A3022 RMK A01 T10291049  RH  086%=      5-min Rain = 0
KAMH 201440Z 19007KT M03/M05 A3022 RMK A01 T10251048  RH  085%=      5-min Rain = 0
KAMH 201445Z 19007KT M02/M05 A3022 RMK A01 T10221047  RH  084%=      5-min Rain = 0
KAMH 201450Z 19008KT M02/M04 A3021 RMK A01 T10181044  RH  083%=      5-min Rain = 0
KAMH 201455Z 19008KT M01/M04 A3021 RMK A01 T10141041  RH  082%=      5-min Rain = 0
KAMH 201500Z 19009KT M01/M04 A3022 RMK A01 T10111040  RH  081%=      5-min Rain = 0
KAMH 201505Z 19008KT M01/M04 A3022 RMK A01 T10091039  RH  081%=      5-min Rain = 0
KAMH 201510Z 20010KT M01/M04 A3022 RMK A01 T10061038  RH  080%=      5-min Rain = 0
KAMH 201515Z 20011KT M00/M04 A3022 RMK A01 T10041037  RH  078%=      5-min Rain = 0
KAMH 201520Z 20009KT M00/M04 A3022 RMK A01 T10021037  RH  078%=      5-min Rain = 0
KAMH 201525Z 20009KT 00/04 A3022 RMK A01 T00-00-35  RH  078%=      5-min Rain = 0
KAMH 201530Z 20009KT 00/M03 A3022 RMK A01 T00031033  RH  078%=      5-min Rain = 0
KAMH 201535Z 20010KT 01/M03 A3022 RMK A01 T00061031  RH  077%=      5-min Rain = 0
KAMH 201540Z 19010KT 01/M03 A3021 RMK A01 T00101028  RH  076%=      5-min Rain = 0
KAMH 201545Z 19009KT 01/M03 A3021 RMK A01 T00141026  RH  075%=      5-min Rain = 0
KAMH 201550Z 19010KT 02/M02 A3021 RMK A01 T00181024  RH  074%=      5-min Rain = 0
KAMH 201555Z 19010KT 02/M02 A3021 RMK A01 T00231022  RH  073%=      5-min Rain = 0
KAMH 201600Z 19011KT 03/M02 A3021 RMK A01 T00271022  RH  071%=      5-min Rain = 0
KAMH 201605Z 19011KT 03/M02 A3021 RMK A01 T00311021  RH  069%=      5-min Rain = 0
KAMH 201610Z 19011KT 04/M02 A3021 RMK A01 T00371019  RH  067%=      5-min Rain = 0
KAMH 201615Z 20010KT 04/M02 A3021 RMK A01 T00431019  RH  065%=      5-min Rain = 0
KAMH 201620Z 20012KT 05/M02 A3021 RMK A01 T00451023  RH  062%=      5-min Rain = 0
KAMH 201625Z 20011G16KT 05/M02 A3021 RMK A01 T00471023  RH  061%=      5-min Rain = 0
KAMH 201630Z 20012KT 05/M02 A3021 RMK A01 T00511024  RH  059%=      5-min Rain = 0
KAMH 201635Z 20012KT 05/M03 A3021 RMK A01 T00521026  RH  057%=      5-min Rain = 0
KAMH 201640Z 20012KT 06/M03 A3021 RMK A01 T00561025  RH  056%=      5-min Rain = 0
KAMH 201645Z 20012KT 06/M03 A302 RMK A01 T00611026  RH  054%=      5-min Rain = 0
KAMH 201650Z 20012KT 07/M03 A302 RMK A01 T00661025  RH  053%=      5-min Rain = 0
KAMH 201655Z 20012KT 07/M03 A302 RMK A01 T00701028  RH  050%=      5-min Rain = 0
KAMH 201700Z 20010KT 07/M03 A302 RMK A01 T00741027  RH  049%=      5-min Rain = 0
KAMH 201705Z 20012KT 08/M03 A302 RMK A01 T00771029  RH  047%=      5-min Rain = 0
KAMH 201710Z 20010KT 08/M03 A302 RMK A01 T00821027  RH  046%=      5-min Rain = 0
KAMH 201715Z 20010KT 09/M03 A302 RMK A01 T00861030  RH  044%=      5-min Rain = 0
KAMH 201720Z 21009G14KT 09/M03 A302 RMK A01 T00891029  RH  044%=      5-min Rain = 0
KAMH 201725Z 21010KT 09/M03 A302 RMK A01 T00941033  RH  041%=      5-min Rain = 0
KAMH 201730Z 21011G17KT 09/M03 A3019 RMK A01 T00931034  RH  041%=      5-min Rain = 0
KAMH 201735Z 21013KT 10/M04 A3019 RMK A01 T00971036  RH  039%=      5-min Rain = 0
KAMH 201740Z 22013G18KT 10/M03 A3019 RMK A01 T01021034  RH  038%=      5-min Rain = 0
KAMH 201745Z 22013KT 10/M04 A3019 RMK A01 T01021040  RH  037%=      5-min Rain = 0
KAMH 201750Z 23014KT 10/M04 A3018 RMK A01 T01011041  RH  037%=      5-min Rain = 0
KAMH 201755Z 23012KT 11/M04 A3018 RMK A01 T01051039  RH  036%=      5-min Rain = 0
KAMH 201800Z 23013KT 11/M04 A3018 RMK A01 T01111040  RH  035%=      5-min Rain = 0
KAMH 201805Z 23015KT 11/M04 A3018 RMK A01 T01111043  RH  034%=      5-min Rain = 0
KAMH 201810Z 23015KT 11/M04 A3017 RMK A01 T01131042  RH  034%=      5-min Rain = 0
KAMH 201815Z 23015G21KT 12/M04 A3017 RMK A01 T01211041  RH  032%=      5-min Rain = 0
KAMH 201820Z 24015G20KT 12/M04 A3016 RMK A01 T01211043  RH  032%=      5-min Rain = 0
KAMH 201825Z 24015G20KT 12/M04 A3016 RMK A01 T01211044  RH  031%=      5-min Rain = 0
KAMH 201830Z 24012KT 12/M04 A3016 RMK A01 T01231041  RH  032%=      5-min Rain = 0
KAMH 201835Z 24015G21KT 12/M04 A3015 RMK A01 T01231043  RH  031%=      5-min Rain = 0
KAMH 201840Z 23014G21KT 13/M04 A3015 RMK A01 T01271040  RH  031%=      5-min Rain = 0
KAMH 201845Z 23015KT 13/M04 A3014 RMK A01 T01291041  RH  030%=      5-min Rain = 0
KAMH 201850Z 24013G18KT 13/M04 A3014 RMK A01 T01341036  RH  031%=      5-min Rain = 0
KAMH 201855Z 23013G18KT 14/M04 A3014 RMK A01 T01361039  RH  030%=      5-min Rain = 0
KAMH 201900Z 23015G21KT 14/M04 A3013 RMK A01 T01351044  RH  029%=      5-min Rain = 0
KAMH 201905Z 23016G21KT 14/M05 A3013 RMK A01 T01391047  RH  027%=      5-min Rain = 0
KAMH 201910Z 24015KT 14/M05 A3013 RMK A01 T01391050  RH  027%=      5-min Rain = 0
KAMH 201915Z 22012KT 14/M04 A3013 RMK A01 T01441043  RH  027%=      5-min Rain = 0
KAMH 201920Z 22014KT 14/M05 A3012 RMK A01 T01441046  RH  027%=      5-min Rain = 0
KAMH 201925Z 22012G19KT 15/M04 A3012 RMK A01 T01461043  RH  027%=      5-min Rain = 0
KAMH 201930Z 23014KT 15/M05 A3011 RMK A01 T01471046  RH  026%=      5-min Rain = 0
KAMH 201935Z 23014G20KT 15/M05 A301 RMK A01 T01531046  RH  025%=      5-min Rain = 0
KAMH 201940Z 22012G17KT 16/M04 A301 RMK A01 T01571044  RH  025%=      5-min Rain = 0
KAMH 201945Z 23017G22KT 16/M05 A3009 RMK A01 T01581047  RH  024%=      5-min Rain = 0
KAMH 201950Z 23015KT 16/M05 A3009 RMK A01 T01601047  RH  024%=      5-min Rain = 0
KAMH 201955Z 23015G20KT 16/M05 A3009 RMK A01 T01601048  RH  024%=      5-min Rain = 0
KAMH 202000Z 23016KT 17/M04 A3009 RMK A01 T01681044  RH  023%=      5-min Rain = 0
KAMH 202005Z 24015G20KT 17/M04 A3008 RMK A01 T01701044  RH  023%=      5-min Rain = 0
KAMH 202010Z 25015G20KT 17/M05 A3008 RMK A01 T01721045  RH  022%=      5-min Rain = 0
KAMH 202015Z 24015G22KT 17/M05 A3008 RMK A01 T01691048  RH  022%=      5-min Rain = 0
KAMH 202020Z 24014G22KT 17/M05 A3007 RMK A01 T01691048  RH  022%=      5-min Rain = 0
KAMH 202025Z 24016G21KT 17/M05 A3007 RMK A01 T01721048  RH  022%=      5-min Rain = 0
KAMH 202030Z 25015KT 17/M05 A3007 RMK A01 T01731047  RH  022%=      5-min Rain = 0
KAMH 202035Z 24017G22KT 17/M05 A3007 RMK A01 T01721048  RH  022%=      5-min Rain = 0
KAMH 202040Z 25015G21KT 18/M05 A3007 RMK A01 T01751045  RH  022%=      5-min Rain = 0
KAMH 202045Z 24013G23KT 18/M04 A3006 RMK A01 T01781044  RH  022%=      5-min Rain = 0
KAMH 202050Z 24016G23KT 18/M04 A3006 RMK A01 T01791044  RH  022%=      5-min Rain = 0
KAMH 202055Z 25016G21KT 18/M04 A3005 RMK A01 T01801043  RH  022%=      5-min Rain = 0
KAMH 202100Z 25016G21KT 18/M04 A3005 RMK A01 T01801041  RH  022%=      5-min Rain = 0
KAMH 202105Z 25018G23KT 18/M04 A3005 RMK A01 T01811040  RH  022%=      5-min Rain = 0
KAMH 202110Z 25017KT 18/M04 A3005 RMK A01 T01811040  RH  022%=      5-min Rain = 0
KAMH 202115Z 25017KT 18/M04 A3005 RMK A01 T01821040  RH  022%=      5-min Rain = 0
KAMH 202120Z 25016KT 18/M04 A3005 RMK A01 T01831039  RH  022%=      5-min Rain = 0
KAMH 202125Z 24016G21KT 18/M04 A3004 RMK A01 T01831042  RH  021%=      5-min Rain = 0
KAMH 202130Z 25016G21KT 18/M05 A3004 RMK A01 T01831045  RH  021%=      5-min Rain = 0
KAMH 202135Z 24015G21KT 19/M05 A3004 RMK A01 T01851045  RH  021%=      5-min Rain = 0
KAMH 202140Z 24016KT 19/M05 A3004 RMK A01 T01851048  RH  020%=      5-min Rain = 0
KAMH 202145Z 24016G23KT 19/M05 A3004 RMK A01 T01871051  RH  020%=      5-min Rain = 0
KAMH 202150Z 22014KT 19/M05 A3004 RMK A01 T01911052  RH  019%=      5-min Rain = 0.01
KAMH 202155Z 21014KT 19/M06 A3004 RMK A01 T01891056  RH  019%=      5-min Rain = 0
KAMH 202200Z 21014G19KT 19/M06 A3004 RMK A01 T01881057  RH  019%=      5-min Rain = 0
KAMH 202205Z 22011G18KT 19/M06 A3004 RMK A01 T01891057  RH  018%=      5-min Rain = 0
KAMH 202210Z 22011G17KT 19/M05 A3004 RMK A01 T01901054  RH  019%=      5-min Rain = 0
KAMH 202215Z 22012KT 19/M06 A3004 RMK A01 T01871058  RH  018%=      5-min Rain = 0
KAMH 202220Z 22011KT 19/M06 A3004 RMK A01 T01861056  RH  019%=      5-min Rain = 0
KAMH 202225Z 24011KT 19/M05 A3004 RMK A01 T01851049  RH  020%=      5-min Rain = 0
KAMH 202230Z 24012KT 18/M05 A3004 RMK A01 T01831047  RH  021%=      5-min Rain = 0
KAMH 202235Z 24012KT 19/M05 A3004 RMK A01 T01851046  RH  020%=      5-min Rain = 0
KAMH 202240Z 24011KT 19/M05 A3004 RMK A01 T01871045  RH  020%=      5-min Rain = 0
KAMH 202245Z 24012G18KT 18/M05 A3004 RMK A01 T01841046  RH  021%=      5-min Rain = 0
KAMH 202250Z 24011KT 18/M05 A3004 RMK A01 T01841045  RH  021%=      5-min Rain = 0
KAMH 202255Z 24010KT 18/M05 A3004 RMK A01 T01841046  RH  021%=      5-min Rain = 0
KAMH 202300Z 24009KT 18/M05 A3004 RMK A01 T01811045  RH  021%=      5-min Rain = 0
KAMH 202305Z 24009KT 18/M04 A3003 RMK A01 T01801044  RH  021%=      5-min Rain = 0
KAMH 202310Z 24008KT 18/M04 A3003 RMK A01 T01771043  RH  022%=      5-min Rain = 0
KAMH 202315Z 23009KT 18/M05 A3003 RMK A01 T01751046  RH  022%=      5-min Rain = 0
KAMH 202320Z 23009KT 17/M05 A3002 RMK A01 T01731048  RH  022%=      5-min Rain = 0
KAMH 202325Z 23008KT 17/M05 A3002 RMK A01 T01701049  RH  022%=      5-min Rain = 0
KAMH 202330Z 23007KT 17/M05 A3002 RMK A01 T01661048  RH  023%=      5-min Rain = 0
KAMH 202335Z 22007KT 17/M05 A3002 RMK A01 T01661047  RH  023%=      5-min Rain = 0
KAMH 202340Z 22006KT 17/M05 A3002 RMK A01 T01651047  RH  023%=      5-min Rain = 0
KAMH 202345Z 21007KT 16/M05 A3002 RMK A01 T01591047  RH  024%=      5-min Rain = 0
KAMH 202350Z 21007KT 16/M05 A3002 RMK A01 T01551047  RH  025%=      5-min Rain = 0
KAMH 202355Z 21006KT 15/M05 A3002 RMK A01 T01501047  RH  025%=      5-min Rain = 0
KAMH 210000Z 20005KT 14/M05 A3002 RMK A01 T01441047  RH  027%=      5-min Rain = 0
KAMH 210005Z 18005KT 13/M04 A3003 RMK A01 T01301043  RH  030%=      5-min Rain = 0
KAMH 210010Z 18006KT 13/M05 A3003 RMK A01 T01281045  RH  030%=      5-min Rain = 0
KAMH 210015Z 17007KT 12/M05 A3003 RMK A01 T01201046  RH  031%=      5-min Rain = 0
KAMH 210020Z 17007KT 11/M05 A3003 RMK A01 T01101047  RH  033%=      5-min Rain = 0
KAMH 210025Z 17008KT 10/M05 A3003 RMK A01 T01041046  RH  034%=      5-min Rain = 0
KAMH 210030Z 18009KT 10/M05 A3003 RMK A01 T00971045  RH  036%=      5-min Rain = 0
KAMH 210035Z 18007KT 09/M05 A3003 RMK A01 T00941047  RH  037%=      5-min Rain = 0
KAMH 210040Z 19006KT 09/M05 A3002 RMK A01 T00921045  RH  038%=      5-min Rain = 0
KAMH 210045Z 18007KT 09/M05 A3002 RMK A01 T00901046  RH  038%=      5-min Rain = 0
KAMH 210050Z 18008KT 09/M05 A3002 RMK A01 T00901047  RH  038%=      5-min Rain = 0
KAMH 210055Z 18008KT 09/M05 A3002 RMK A01 T00901048  RH  038%=      5-min Rain = 0
KAMH 210100Z 18008KT 09/M05 A3002 RMK A01 T00891049  RH  037%=      5-min Rain = 0
KAMH 210105Z 18008KT 09/M05 A3002 RMK A01 T00871049  RH  038%=      5-min Rain = 0
KAMH 210110Z 19008KT 09/M05 A3002 RMK A01 T00861049  RH  038%=      5-min Rain = 0
KAMH 210115Z 19008KT 09/M05 A3002 RMK A01 T00871049  RH  038%=      5-min Rain = 0
KAMH 210120Z 19009KT 09/M05 A3002 RMK A01 T00881050  RH  037%=      5-min Rain = 0
KAMH 210125Z 19009KT 09/M05 A3002 RMK A01 T00861052  RH  037%=      5-min Rain = 0
KAMH 210130Z 19009KT 08/M05 A3002 RMK A01 T00831052  RH  038%=      5-min Rain = 0
KAMH 210135Z 19009KT 08/M05 A3002 RMK A01 T00831052  RH  038%=      5-min Rain = 0
KAMH 210140Z 19009KT 08/M05 A3001 RMK A01 T00831053  RH  038%=      5-min Rain = 0
KAMH 210145Z 18009KT 08/M05 A3001 RMK A01 T00791054  RH  038%=      5-min Rain = 0
KAMH 210150Z 18008KT 07/M05 A3001 RMK A01 T00721054  RH  040%=      5-min Rain = 0
KAMH 210155Z 18008KT 07/M05 A3001 RMK A01 T00681054  RH  042%=      5-min Rain = 0
KAMH 210200Z 18008KT 06/M05 A3001 RMK A01 T00631054  RH  043%=      5-min Rain = 0
KAMH 210205Z 18008KT 06/M06 A3001 RMK A01 T00611055  RH  043%=      5-min Rain = 0
KAMH 210210Z 19008KT 06/M06 A3001 RMK A01 T00631055  RH  042%=      5-min Rain = 0
KAMH 210215Z 19009KT 07/M06 A3001 RMK A01 T00661056  RH  041%=      5-min Rain = 0
KAMH 210220Z 19009KT 07/M06 A3001 RMK A01 T00681057  RH  041%=      5-min Rain = 0
KAMH 210225Z 19010KT 07/M06 A3001 RMK A01 T00701057  RH  040%=      5-min Rain = 0
KAMH 210230Z 19010KT 07/M06 A3001 RMK A01 T00701057  RH  040%=      5-min Rain = 0
KAMH 210235Z 19009KT 07/M06 A3001 RMK A01 T00671056  RH  041%=      5-min Rain = 0
KAMH 210240Z 18009KT 07/M06 A3001 RMK A01 T00651056  RH  042%=      5-min Rain = 0
KAMH 210245Z 18008KT 06/M06 A3001 RMK A01 T00611056  RH  043%=      5-min Rain = 0
KAMH 210250Z 18008KT 06/M06 A30 RMK A01 T00591056  RH  044%=      5-min Rain = 0
KAMH 210255Z 18008KT 06/M06 A30 RMK A01 T00571056  RH  044%=      5-min Rain = 0
KAMH 210300Z 18008KT 06/M06 A30 RMK A01 T00561056  RH  044%=      5-min Rain = 0
KAMH 210305Z 18007KT 05/M06 A30 RMK A01 T00531056  RH  045%=      5-min Rain = 0
KAMH 210310Z 18006KT 05/M06 A30 RMK A01 T00471057  RH  047%=      5-min Rain = 0
KAMH 210315Z 19007KT 05/M06 A30 RMK A01 T00461057  RH  047%=      5-min Rain = 0
KAMH 210320Z 19006KT 05/M06 A30 RMK A01 T00461057  RH  047%=      5-min Rain = 0
KAMH 210325Z 19007KT 05/M06 A30 RMK A01 T00461058  RH  047%=      5-min Rain = 0
KAMH 210330Z 19006KT 04/M06 A30 RMK A01 T00411059  RH  048%=      5-min Rain = 0
KAMH 210335Z 19007KT 04/M06 A2999 RMK A01 T00391058  RH  049%=      5-min Rain = 0
KAMH 210340Z 19008KT 04/M06 A2999 RMK A01 T00441057  RH  048%=      5-min Rain = 0
KAMH 210345Z 20008KT 05/M06 A2999 RMK A01 T00501056  RH  046%=      5-min Rain = 0
KAMH 210350Z 20008KT 05/M06 A2999 RMK A01 T00541058  RH  045%=      5-min Rain = 0
KAMH 210355Z 20007KT 06/M06 A2999 RMK A01 T00551058  RH  044%=      5-min Rain = 0
KAMH 210400Z 21006KT 05/M06 A30 RMK A01 T00531058  RH  045%=      5-min Rain = 0
KAMH 210405Z 21007KT 06/M06 A30 RMK A01 T00591057  RH  043%=      5-min Rain = 0
KAMH 210410Z 21008KT 06/M06 A30 RMK A01 T00621058  RH  042%=      5-min Rain = 0
KAMH 210415Z 21007KT 06/M06 A30 RMK A01 T00611059  RH  042%=      5-min Rain = 0
KAMH 210420Z 21008KT 06/M06 A30 RMK A01 T00581060  RH  043%=      5-min Rain = 0
KAMH 210425Z 22009KT 06/M06 A30 RMK A01 T00571059  RH  043%=      5-min Rain = 0
KAMH 210430Z 21008KT 06/M06 A30 RMK A01 T00551059  RH  044%=      5-min Rain = 0
KAMH 210435Z 21009KT 06/M06 A30 RMK A01 T00571059  RH  043%=      5-min Rain = 0
KAMH 210440Z 21008KT 06/M06 A30 RMK A01 T00551059  RH  043%=      5-min Rain = 0
KAMH 210445Z 21008KT 05/M06 A30 RMK A01 T00521059  RH  044%=      5-min Rain = 0
KAMH 210450Z 21008KT 05/M06 A2999 RMK A01 T00511059  RH  045%=      5-min Rain = 0
KAMH 210455Z 21008KT 05/M06 A30 RMK A01 T00501059  RH  045%=      5-min Rain = 0
KAMH 210500Z 21008KT 05/M06 A2999 RMK A01 T00491058  RH  046%=      5-min Rain = 0
KAMH 210505Z 21008KT 05/M06 A2999 RMK A01 T00481059  RH  046%=      5-min Rain = 0
KAMH 210510Z 21008KT 05/M06 A2999 RMK A01 T00451059  RH  047%=      5-min Rain = 0
KAMH 210515Z 21007KT 04/M06 A2999 RMK A01 T00421060  RH  048%=      5-min Rain = 0
KAMH 210520Z 21008KT 04/M06 A2999 RMK A01 T00421060  RH  048%=      5-min Rain = 0
KAMH 210525Z 21008KT 04/M06 A2999 RMK A01 T00431060  RH  047%=      5-min Rain = 0
KAMH 210530Z 20008KT 05/M06 A2999 RMK A01 T00451059  RH  047%=      5-min Rain = 0
KAMH 210535Z 21008KT 05/M06 A2999 RMK A01 T00451060  RH  046%=      5-min Rain = 0
KAMH 210540Z 20008KT 05/M06 A2998 RMK A01 T00471059  RH  046%=      5-min Rain = 0
KAMH 210545Z 21009KT 05/M06 A2998 RMK A01 T00501058  RH  046%=      5-min Rain = 0
KAMH 210550Z 21010KT 05/M06 A2999 RMK A01 T00541058  RH  044%=      5-min Rain = 0
KAMH 210555Z 21011KT 06/M06 A2998 RMK A01 T00551059  RH  044%=      5-min Rain = 0

Page generated in 0.0158 seconds.